ADDS METAR Data INFO
IDs: Format: Raw Decoded Include TAF

Data at: 1742 UTC 25 Feb 2018

KCJR 251735Z AUTO 26006KT 10SM OVC006 12/11 A2999 RMK AO2 T01200110
KCJR 251715Z AUTO 00000KT 10SM OVC006 12/11 A2996 RMK AO2 T01160107
KCJR 251655Z AUTO 22006KT 10SM OVC006 11/11 A2994 RMK AO2 T01130105
KCJR 251635Z AUTO 21007KT 10SM -RA OVC004 11/11 A2994 RMK AO2 T01130105
KCJR 251615Z AUTO 00000KT 10SM OVC004 11/10 A2994 RMK AO2 T01100101
KCJR 251555Z AUTO 00000KT 7SM UP OVC004 11/10 A2996 RMK AO2 T01060097
KCJR 251535Z AUTO 00000KT 7SM OVC004 10/09 A2997 RMK AO2 T01020094
KCJR 251515Z AUTO 00000KT 10SM -DZ BKN006 BKN070 OVC085 10/09 A2999 RMK AO2 T01000091
KCJR 251455Z AUTO 00000KT 10SM -RA SCT004 BKN075 OVC085 10/09 A3000 RMK AO2 P0003 60018 T00970090
KCJR 251435Z AUTO 00000KT 7SM -RA SCT004 SCT009 OVC085 10/09 A3000 RMK AO2 P0003 T00980090
KCJR 251415Z AUTO 00000KT 5SM -RA SCT065 OVC075 10/09 A3000 RMK AO2 P0002 T00960089
KCJR 251355Z AUTO 00000KT 1 1/2SM +RA SCT003 BKN024 OVC065 09/09 A3000 RMK AO2 P0014 T00930086
KCJR 251335Z AUTO 00000KT 4SM RA BKN003 BKN007 OVC021 09/09 A3002 RMK AO2 P0003 T00930085
KCJR 251315Z AUTO 34006KT 1 1/2SM RA OVC003 10/09 A3003 RMK AO2 P0001 T00950086
KCJR 251255Z AUTO 33006KT 1/4SM RA OVC003 10/09 A3002 RMK AO2 T00950087
KCJR 251235Z AUTO 00000KT 1/4SM FG OVC003 09/09 A2998 RMK AO2 T00930085
KCJR 251215Z AUTO 00000KT 1/2SM -DZ OVC003 09/09 A2998 RMK AO2 T00930085
KCJR 251155Z AUTO 00000KT 3/4SM BR OVC003 09/09 A2998 RMK AO2 70032 T00930086 10095 20092
KCJR 251135Z AUTO 00000KT 1SM BR OVC003 09/09 A2998 RMK AO2 T00930085
KCJR 251115Z AUTO 00000KT 1SM BR OVC003 09/09 A2998 RMK AO2 T00930085
KCJR 251055Z AUTO 00000KT 3/4SM BR OVC003 09/09 A2998 RMK AO2 T00930085
KCJR 251035Z AUTO 00000KT 3/4SM BR OVC003 09/09 A2999 RMK AO2 T00930085
KCJR 251015Z AUTO 00000KT 1SM BR OVC003 09/09 A3001 RMK AO2 T00930085
KCJR 250955Z AUTO 00000KT 1SM BR OVC003 09/09 A3000 RMK AO2 T00930085
KCJR 250935Z AUTO 00000KT 1SM BR OVC003 09/09 A3000 RMK AO2 T00930085
KCJR 250915Z AUTO 00000KT 1SM BR OVC003 09/09 A3001 RMK AO2 T00930085
KCJR 250855Z AUTO 00000KT 1SM BR OVC003 09/09 A3003 RMK AO2 T00930085
KCJR 250835Z AUTO 00000KT 1 1/4SM BR OVC003 09/09 A3004 RMK AO2 T00930085
KCJR 250815Z AUTO 00000KT 1 1/4SM BR OVC003 09/09 A3004 RMK AO2 T00930085
KCJR 250755Z AUTO 00000KT 1 1/2SM BR OVC003 09/09 A3005 RMK AO2 T00930085
KCJR 250735Z AUTO 00000KT 1 1/2SM BR OVC003 09/09 A3005 RMK AO2 T00930085
KCJR 250715Z AUTO 00000KT 1 1/2SM BR OVC003 09/09 A3006 RMK AO2 T00930085
KCJR 250655Z AUTO 00000KT 1 3/4SM BR OVC003 09/09 A3007 RMK AO2 T00930085
KCJR 250635Z AUTO 00000KT 1 3/4SM BR OVC003 09/09 A3007 RMK AO2 T00930085
KCJR 250615Z AUTO 00000KT 2SM BR OVC005 09/09 A3009 RMK AO2 T00930085
KCJR 250555Z AUTO 00000KT 3SM BR OVC005 10/09 A3010 RMK AO2 60031 T00950085 10110 20094
KCJR 250535Z AUTO 33004KT 4SM -DZ OVC007 10/09 A3011 RMK AO2 T00950085
KCJR 250515Z AUTO 33003KT 5SM -RA OVC007 10/09 A3012 RMK AO2 T00950085
KCJR 250455Z AUTO 00000KT 4SM DZ BKN005 OVC010 10/09 A3012 RMK AO2 P0001 T00950086 401200088
KCJR 250435Z AUTO 00000KT 3SM RA OVC005 10/09 A3012 RMK AO2 T00950086
KCJR 250415Z AUTO 00000KT 4SM -DZ BKN005 OVC027 10/09 A3012 RMK AO2 T00950085
KCJR 250355Z AUTO 04003KT 3SM -RA SCT005 OVC027 10/09 A3012 RMK AO2 P0021 T00950085
KCJR 250335Z AUTO 03003KT 1 1/2SM -RA OVC005 10/09 A3014 RMK AO2 P0015 T00950086
KCJR 250315Z AUTO 36003KT 2 1/2SM RA OVC005 10/09 A3014 RMK AO2 P0004 T00950086
KCJR 250255Z AUTO 36004KT 2 1/2SM +RA OVC005 10/09 A3014 RMK AO2 P0006 60008 T00960086
KCJR 250235Z AUTO 36004KT 3SM -RA OVC005 10/09 A3015 RMK AO2 P0001 T00980088
KCJR 250215Z AUTO 03003KT 3SM -RA OVC005 10/09 A3015 RMK AO2 P0001 T01000090
KCJR 250155Z AUTO 36003KT 3SM -RA OVC005 10/09 A3016 RMK AO2 P0002 T01000090
KCJR 250135Z AUTO 03004KT 2 1/2SM RA OVC007 10/09 A3015 RMK AO2 P0001 T01020090
KCJR 250115Z AUTO 03005KT 3SM -RA OVC007 11/09 A3015 RMK AO2 T01050091
KCJR 250055Z AUTO 02008KT 4SM BR OVC007 11/09 A3015 RMK AO2 T01060091
KCJR 250035Z AUTO 03005KT 7SM OVC007 11/09 A3015 RMK AO2 T01080092
KCJR 250015Z AUTO 03005KT 7SM -RA OVC007 11/09 A3015 RMK AO2 T01080092
KCJR 242355Z AUTO 04004KT 10SM -RA OVC007 11/09 A3014 RMK AO2 60001 T01100094 10118 20110
KCJR 242335Z AUTO 03006KT 10SM OVC007 11/10 A3014 RMK AO2 T01100095
KCJR 242315Z AUTO 01006KT 10SM -DZ OVC007 11/10 A3013 RMK AO2 T01100097
KCJR 242255Z AUTO 01005KT 10SM -RA OVC007 11/10 A3013 RMK AO2 T01100098
KCJR 242235Z AUTO 01005KT 10SM RA OVC007 11/10 A3012 RMK AO2 T01100100
KCJR 242215Z AUTO 01005KT 10SM OVC007 11/10 A3011 RMK AO2 T01110102
KCJR 242155Z AUTO 04004KT 10SM -DZ OVC007 11/10 A3011 RMK AO2 T01100102
KCJR 242135Z AUTO 06004KT 10SM -DZ OVC007 11/10 A3009 RMK AO2 T01100102
KCJR 242115Z AUTO 02007KT 10SM OVC007 11/10 A3010 RMK AO2 T01110103
KCJR 242055Z AUTO 05003KT 10SM OVC007 11/11 A3010 RMK AO2 60001 T01140105
KCJR 242035Z AUTO 04004KT 10SM OVC005 11/11 A3011 RMK AO2 T01140106
KCJR 242015Z AUTO 03004KT 10SM OVC005 12/11 A3011 RMK AO2 T01150106
KCJR 241955Z AUTO 01005KT 10SM OVC005 11/11 A3012 RMK AO2 T01130105
KCJR 241935Z AUTO 00000KT 10SM DZ OVC005 11/11 A3012 RMK AO2 T01140106
KCJR 241915Z AUTO 01003KT 10SM RA OVC005 12/11 A3012 RMK AO2 T01150106
KCJR 241855Z AUTO 35005KT 10SM -RA OVC005 11/11 A3013 RMK AO2 P0001 T01120105
KCJR 241835Z AUTO 36004KT 7SM -RA OVC005 12/11 A3014 RMK AO2 T01170110
KCJR 241815Z AUTO 02005KT 5SM -RA OVC005 12/11 A3013 RMK AO2 T01180110
KCJR 241755Z AUTO 02007KT 4SM -RA OVC003 12/11 A3013 RMK AO2 T01170109 10120 20099
KCJR 241735Z AUTO 32004KT 3SM -RA OVC003 12/11 A3014 RMK AO2 T01160109
KCJR 241715Z AUTO 36005KT 3SM -RA OVC003 12/11 A3014 RMK AO2 T01180110
KCJR 241655Z AUTO 01003KT 3SM -DZ OVC003 12/11 A3015 RMK AO2 T01180110
KCJR 241635Z AUTO 05003KT 3SM -DZ OVC003 12/11 A3015 RMK AO2 T01180110
KCJR 241615Z AUTO 00000KT 3SM -DZ OVC003 12/11 A3015 RMK AO2 T01150106
KCJR 241555Z AUTO 36003KT 2SM -RA OVC003 11/11 A3015 RMK AO2 T01120105
KCJR 241535Z AUTO 32003KT 1 3/4SM BR OVC003 11/11 A3016 RMK AO2 T01130105
KCJR 241515Z AUTO 00000KT 2 1/2SM BR OVC003 11/11 A3015 RMK AO2 T01130105
KCJR 241455Z AUTO 00000KT 3SM BR OVC003 12/11 A3016 RMK AO2 T01150106
KCJR 241435Z AUTO 00000KT 3/4SM BR OVC003 12/11 A3016 RMK AO2 T01150107
KCJR 241415Z AUTO 00000KT 1 1/2SM BR OVC003 11/11 A3016 RMK AO2 T01140106
KCJR 241355Z AUTO 00000KT 3/4SM BR OVC003 11/11 A3017 RMK AO2 T01120105
KCJR 241335Z AUTO 00000KT 1/4SM FG OVC003 11/11 A3017 RMK AO2 T01130105
KCJR 241315Z AUTO 00000KT M1/4SM FG OVC003 11/10 A3016 RMK AO2 T01070099
KCJR 241255Z AUTO 00000KT M1/4SM FG OVC003 10/10 A3017 RMK AO2 T01030095
KCJR 241235Z AUTO 00000KT M1/4SM FG OVC003 10/09 A3016 RMK AO2 T01000092
KCJR 241215Z AUTO 00000KT M1/4SM FG OVC003 10/09 A3016 RMK AO2 T01000091
KCJR 241155Z AUTO 00000KT 1/4SM FG OVC003 10/09 A3015 RMK AO2 T01000091 10100 20090
KCJR 241135Z AUTO 00000KT 1/4SM FG OVC003 10/09 A3014 RMK AO2 T00990091
KCJR 241115Z AUTO 00000KT 1/4SM FG OVC003 10/09 A3015 RMK AO2 T00980090
KCJR 241055Z AUTO 00000KT 1/4SM FG OVC003 10/09 A3015 RMK AO2 T00980090
KCJR 241035Z AUTO 00000KT 1/4SM FG OVC003 10/09 A3015 RMK AO2 T00980090
KCJR 241015Z AUTO 00000KT 1/4SM FG OVC003 10/09 A3017 RMK AO2 T00970090
KCJR 240955Z AUTO 00000KT 1/4SM FG OVC003 10/09 A3016 RMK AO2 T00970090
KCJR 240935Z AUTO 00000KT 1/2SM FG OVC003 10/09 A3016 RMK AO2 T00970090
KCJR 240915Z AUTO 00000KT 1SM BR OVC003 10/09 A3017 RMK AO2 T00970090
KCJR 240855Z AUTO 00000KT 1 3/4SM BR OVC003 10/09 A3016 RMK AO2 T00960088
KCJR 240835Z AUTO 00000KT 2SM BR OVC003 10/09 A3017 RMK AO2 T00970090
KCJR 240815Z AUTO 00000KT 3SM BR OVC003 10/09 A3017 RMK AO2 T00970089
KCJR 240755Z AUTO 00000KT 4SM BR OVC003 10/09 A3019 RMK AO2 T00970089
KCJR 240735Z AUTO 00000KT 5SM BR OVC003 10/09 A3020 RMK AO2 T00970088
KCJR 240715Z AUTO 00000KT 5SM BR OVC005 10/09 A3020 RMK AO2 T00950085
KCJR 240655Z AUTO 00000KT 7SM OVC005 10/09 A3021 RMK AO2 T00970087
KCJR 240635Z AUTO 00000KT 7SM OVC005 09/09 A3022 RMK AO2 T00940085
KCJR 240615Z AUTO 00000KT 7SM OVC007 10/09 A3022 RMK AO2 T00950086
KCJR 240555Z AUTO 17003KT 5SM BR OVC007 09/08 A3023 RMK AO2 T00880079 10102 20088